CheckWX is a tool to help pilots better visualize weather data.  It is not intended as a substitute for an official pre-flight weather briefing.

08:00:09 UTC

BIIS TAF
Ísafjörður Airport
Ísafjörður, Iceland
TAF BIIS 190714Z 1908/1917 22015KT 9999 -SHSNRA BKN015 TEMPO 1908/1917 22018G30KT 5000 SHSN BKN010CB

Mar-19@
08:00 UTC

Mar-19 @ 08:00 UTC

Mar-19@
17:00 UTC

Mar-19 @ 17:00 UTC

TAF BIIS 190714Z 1908/1917 22015KT 9999 -SHSNRA BKN015
Wind
  • 220° at 15 KTS
Conditions
Light Snow, Light Rain
Cloud Levels
  • Broken at 1,500' AGL

Mar-19@
08:00 UTC

Mar-19 @ 08:00 UTC

Mar-19@
17:00 UTC

Mar-19 @ 17:00 UTC

TEMPO 1908/1917 22018G30KT 5000 SHSN BKN010CB

Temporary

Temporary Changes expected for less than half the time period

Wind
  • 220° at 18 KTS
  • {Gusting to 30 KTS
Conditions
Snow
Cloud Levels
  • Broken at 1,000' AGL